Time;durP1;ratioP1;P1;durP2;ratioP2;P2;SDS_P1;SDS_P2;PMS_P1;PMS_P2;Temp;Humidity;BMP_temperature;BMP_pressure;BME280_temperature;BME280_humidity;BME280_pressure;Samples;Min_cycle;Max_cycle;Signal;HPM_P1;HPM_P2
2022/09/28 00:01:17;;;;;;;;;3.00;1.00;;;;;13.18;78.05;99698.41;5058800;28;45682;-86
2022/09/28 00:03:43;;;;;;;;;0.25;0.00;;;;;13.18;78.10;99694.94;5076405;28;45560;-86
2022/09/28 00:06:11;;;;;;;;;5.50;1.00;;;;;13.17;78.31;99693.28;5058434;28;45703;-86
2022/09/28 00:08:36;;;;;;;;;1.75;1.75;;;;;13.16;78.19;99688.97;5076784;28;45885;-86
2022/09/28 00:11:03;;;;;;;;;0.50;0.00;;;;;13.15;78.05;99701.19;5058415;28;49227;-87
2022/09/28 00:13:30;;;;;;;;;1.00;1.00;;;;;13.13;78.18;99700.44;5076754;28;45307;-87
2022/09/28 00:16:06;;;;;;;;;1.00;1.00;;;;;13.14;78.47;99702.13;5059045;28;45252;-87
2022/09/28 00:18:32;;;;;;;;;2.50;1.75;;;;;13.11;78.28;99699.69;5076609;28;45675;-86
2022/09/28 00:21:03;;;;;;;;;2.00;0.00;;;;;13.09;77.87;99692.84;5076376;28;45337;-87
2022/09/28 00:23:28;;;;;;;;;1.75;1.00;;;;;13.10;78.03;99698.00;5076886;28;45321;-87
2022/09/28 00:25:54;;;;;;;;;1.50;0.00;;;;;13.12;78.21;99696.13;5058840;28;45234;-87
2022/09/28 00:28:19;;;;;;;;;0.50;0.00;;;;;13.12;77.70;99695.31;5041493;28;47498;-86
2022/09/28 00:30:45;;;;;;;;;3.25;1.00;;;;;13.11;77.70;99694.47;5076309;28;46093;-87
2022/09/28 00:33:10;;;;;;;;;0.75;0.75;;;;;13.11;77.60;99694.47;5076565;28;45646;-87
2022/09/28 00:35:35;;;;;;;;;0.50;0.25;;;;;13.10;78.04;99698.00;5074466;28;56748;-87
2022/09/28 00:38:02;;;;;;;;;2.75;0.25;;;;;13.09;77.79;99688.50;5074464;28;71208;-86
2022/09/28 00:40:28;;;;;;;;;1.50;1.50;;;;;13.10;77.56;99684.09;5075255;28;45384;-86
2022/09/28 00:42:53;;;;;;;;;4.00;1.00;;;;;13.12;77.71;99687.47;5076481;27;45589;-86
2022/09/28 00:45:18;;;;;;;;;0.00;0.00;;;;;13.11;77.80;99684.03;5076429;27;45394;-86
2022/09/28 00:47:54;;;;;;;;;3.25;1.75;;;;;13.09;77.98;99691.09;5075441;27;69943;-86
2022/09/28 00:50:20;;;;;;;;;1.00;1.00;;;;;13.07;77.75;99684.25;5074845;28;45920;-86
2022/09/28 00:52:52;;;;;;;;;3.25;1.00;;;;;13.04;77.72;99684.41;5076197;27;45503;-86
2022/09/28 00:55:24;;;;;;;;;0.00;0.00;;;;;13.06;77.99;99683.44;5076373;27;45283;-86
2022/09/28 00:57:52;;;;;;;;;3.00;0.50;;;;;13.08;77.92;99684.19;5068540;28;45533;-86
2022/09/28 01:00:18;;;;;;;;;0.25;0.00;;;;;13.06;77.48;99683.44;5057916;27;45763;-86
2022/09/28 01:02:44;;;;;;;;;2.50;1.00;;;;;13.09;77.97;99688.50;5057735;28;45351;-86
2022/09/28 01:05:10;;;;;;;;;0.75;0.75;;;;;13.08;77.38;99680.72;5075287;28;65178;-86
2022/09/28 01:07:36;;;;;;;;;4.00;1.00;;;;;13.04;77.90;99685.28;5057582;28;50576;-85
2022/09/28 01:10:03;;;;;;;;;1.00;1.00;;;;;13.04;77.90;99680.06;5057815;28;45526;-86
2022/09/28 01:12:28;;;;;;;;;4.25;1.50;;;;;13.03;77.30;99682.75;5076015;28;45343;-85
2022/09/28 01:14:54;;;;;;;;;1.25;1.00;;;;;13.03;77.47;99683.59;5076414;28;63982;-86
2022/09/28 01:18:07;;;;;;;;;2.50;1.00;;;;;13.04;77.71;99692.25;5060957;28;46392;-86
2022/09/28 01:20:33;;;;;;;;;2.00;2.00;;;;;13.04;77.34;99684.41;4957991;28;45355;-86
2022/09/28 01:23:27;;;;;;;;;1.00;1.00;;;;;13.06;77.73;99677.38;4957995;28;45484;-86
2022/09/28 01:26:24;;;;;;;;;1.25;0.50;;;;;13.05;77.32;99680.91;4957895;28;45389;-86
2022/09/28 01:28:54;;;;;;;;;1.50;0.25;;;;;13.02;77.81;99666.25;4957683;28;45595;-85
2022/09/28 01:31:21;;;;;;;;;0.00;0.00;;;;;13.00;78.25;99668.09;4941599;28;45669;-85
2022/09/28 01:33:55;;;;;;;;;3.25;1.00;;;;;13.00;77.49;99669.84;4941003;28;45508;-85
2022/09/28 01:36:24;;;;;;;;;0.25;0.25;;;;;13.01;77.81;99677.59;4957733;28;45657;-85
2022/09/28 01:38:54;;;;;;;;;1.50;1.00;;;;;12.98;78.37;99676.03;4957471;28;46147;-85
2022/09/28 01:41:22;;;;;;;;;2.00;1.50;;;;;12.97;78.02;99671.72;4957731;28;45796;-86
2022/09/28 01:43:51;;;;;;;;;0.50;0.50;;;;;12.98;78.47;99673.41;4941614;28;45425;-85
2022/09/28 01:46:20;;;;;;;;;7.00;1.50;;;;;12.98;78.07;99662.97;4941103;28;45352;-85
2022/09/28 01:48:50;;;;;;;;;0.00;0.00;;;;;12.98;78.39;99665.56;4957298;28;47348;-85
2022/09/28 01:51:24;;;;;;;;;2.00;1.00;;;;;12.97;78.44;99666.47;4957349;28;45647;-86
2022/09/28 01:53:52;;;;;;;;;2.00;0.00;;;;;12.94;78.80;99663.19;4976825;28;45471;-85
2022/09/28 01:56:25;;;;;;;;;2.00;2.00;;;;;12.94;78.63;99661.41;5040684;28;45379;-85
2022/09/28 01:59:01;;;;;;;;;4.00;1.00;;;;;12.98;78.48;99660.34;5050313;28;47574;-85
2022/09/28 02:01:33;;;;;;;;;1.00;1.00;;;;;13.03;78.44;99662.69;5060220;28;45673;-85
2022/09/28 02:04:09;;;;;;;;;1.25;0.00;;;;;13.07;78.47;99661.56;5078882;27;45395;-85
2022/09/28 02:06:57;;;;;;;;;3.00;1.00;;;;;13.10;78.52;99666.63;5043778;28;45535;-85
2022/09/28 02:09:41;;;;;;;;;1.00;1.00;;;;;13.12;77.77;99664.78;5060497;28;45528;-85
2022/09/28 02:12:28;;;;;;;;;1.25;1.25;;;;;13.12;78.34;99662.16;5060471;27;45604;-85
2022/09/28 02:15:00;;;;;;;;;2.00;0.75;;;;;13.14;77.90;99655.09;5060610;28;45448;-85
2022/09/28 02:17:25;;;;;;;;;1.00;1.00;;;;;13.14;78.02;99659.47;5060673;28;45473;-85
2022/09/28 02:19:51;;;;;;;;;1.25;1.00;;;;;13.10;77.86;99656.19;5059519;28;69409;-85
2022/09/28 02:22:26;;;;;;;;;1.00;0.00;;;;;13.08;77.91;99652.81;5060486;28;45353;-86
2022/09/28 02:24:56;;;;;;;;;2.50;2.00;;;;;13.07;77.74;99650.28;5059985;28;45334;-85
2022/09/28 02:27:35;;;;;;;;;3.25;2.00;;;;;13.08;78.01;99646.78;5060084;28;45458;-86
2022/09/28 02:30:01;;;;;;;;;1.50;1.00;;;;;13.04;77.96;99647.84;5059642;28;46499;-85
2022/09/28 02:32:28;;;;;;;;;2.75;1.75;;;;;13.05;78.48;99644.31;5060058;28;45469;-85
2022/09/28 02:34:54;;;;;;;;;2.25;2.00;;;;;13.05;78.00;99639.94;5043365;28;45445;-85
2022/09/28 02:37:20;;;;;;;;;2.00;1.00;;;;;13.03;77.71;99646.19;5059553;28;60924;-85
2022/09/28 02:39:45;;;;;;;;;1.25;1.00;;;;;13.01;78.09;99648.03;5060017;28;45384;-85
2022/09/28 02:42:25;;;;;;;;;1.75;1.75;;;;;13.01;78.30;99645.44;5058945;28;67517;-85
2022/09/28 02:45:12;;;;;;;;;3.00;1.00;;;;;12.99;77.88;99645.50;5059830;28;45384;-85
2022/09/28 02:47:59;;;;;;;;;1.50;1.00;;;;;13.01;77.92;99642.81;5078164;28;45582;-85
2022/09/28 02:50:37;;;;;;;;;2.00;1.75;;;;;12.99;78.12;99640.28;5077851;27;46384;-85
2022/09/28 02:53:12;;;;;;;;;2.00;1.00;;;;;12.96;78.05;99638.69;5059619;28;45351;-85
2022/09/28 02:56:02;;;;;;;;;2.00;1.00;;;;;12.93;77.71;99638.84;5078024;28;45467;-85
2022/09/28 02:58:39;;;;;;;;;1.00;1.00;;;;;12.94;78.44;99637.09;5059407;28;45406;-85
2022/09/28 03:01:42;;;;;;;;;1.75;1.00;;;;;12.95;78.03;99641.38;5057370;28;47261;-85
2022/09/28 03:04:10;;;;;;;;;1.75;1.00;;;;;12.91;77.98;99645.94;5057506;28;45843;-85
2022/09/28 03:07:00;;;;;;;;;4.50;1.00;;;;;12.87;77.76;99640.97;5039670;28;45415;-85
2022/09/28 03:09:33;;;;;;;;;2.00;1.00;;;;;12.84;77.94;99644.59;5039584;28;45342;-84
2022/09/28 03:12:08;;;;;;;;;3.00;3.00;;;;;12.85;77.72;99645.44;5039216;28;47078;-85
2022/09/28 03:14:34;;;;;;;;;1.00;1.00;;;;;12.87;78.37;99652.28;5039084;28;45640;-85
2022/09/28 03:16:59;;;;;;;;;2.00;1.00;;;;;12.86;77.95;99655.78;5038605;28;63553;-85
2022/09/28 03:19:29;;;;;;;;;2.00;1.75;;;;;12.84;77.70;99649.00;5057373;28;45476;-85
2022/09/28 03:21:54;;;;;;;;;1.00;1.00;;;;;12.84;77.76;99649.81;5039212;28;46649;-85
2022/09/28 03:24:20;;;;;;;;;2.00;2.00;;;;;12.82;77.46;99654.28;5039122;28;45408;-85
2022/09/28 03:26:45;;;;;;;;;1.00;1.00;;;;;12.78;77.77;99653.63;5056560;28;62185;-85
2022/09/28 03:29:10;;;;;;;;;1.00;1.00;;;;;12.76;77.82;99647.63;5052318;28;45504;-84
2022/09/28 03:31:36;;;;;;;;;2.00;2.00;;;;;12.77;77.97;99657.13;5059119;28;45423;-84
2022/09/28 03:34:01;;;;;;;;;1.50;1.00;;;;;12.77;78.15;99659.75;5076053;28;71450;-84
2022/09/28 03:36:26;;;;;;;;;3.25;2.00;;;;;12.77;77.67;99664.97;5076935;27;45350;-85
2022/09/28 03:38:55;;;;;;;;;0.50;0.50;;;;;12.78;77.98;99663.22;5057396;28;68910;-84
2022/09/28 03:41:23;;;;;;;;;4.50;1.00;;;;;12.79;77.97;99664.91;5058778;28;46342;-84
2022/09/28 03:43:48;;;;;;;;;2.25;2.25;;;;;12.81;77.82;99665.66;5058756;28;45670;-84
2022/09/28 03:46:13;;;;;;;;;2.50;1.25;;;;;12.84;78.16;99665.50;5058071;28;68908;-85
2022/09/28 03:48:39;;;;;;;;;3.00;3.00;;;;;12.84;77.78;99665.50;5059033;28;45424;-87
2022/09/28 03:51:08;;;;;;;;;1.00;1.00;;;;;12.85;77.67;99667.19;5058868;28;46764;-86
2022/09/28 03:53:33;;;;;;;;;2.00;0.00;;;;;12.84;77.86;99667.28;5076862;28;45394;-86
2022/09/28 03:56:11;;;;;;;;;6.00;2.00;;;;;12.84;77.46;99662.03;5075747;28;45400;-86
2022/09/28 03:58:37;;;;;;;;;3.50;2.25;;;;;12.85;77.65;99661.09;5076648;28;45395;-86
2022/09/28 04:01:04;;;;;;;;;1.00;0.00;;;;;12.84;77.70;99660.28;5076307;28;52111;-86
2022/09/28 04:03:30;;;;;;;;;6.25;3.00;;;;;12.87;77.55;99667.94;5076763;28;45358;-87
2022/09/28 04:05:55;;;;;;;;;4.00;2.00;;;;;12.88;77.71;99668.78;5077057;28;45361;-86
2022/09/28 04:08:20;;;;;;;;;4.00;2.50;;;;;12.90;77.27;99669.53;5076134;28;63783;-87
2022/09/28 04:10:46;;;;;;;;;2.00;1.50;;;;;12.90;77.64;99664.31;5076448;28;46282;-87
2022/09/28 04:13:11;;;;;;;;;2.00;2.00;;;;;12.91;77.62;99677.28;5058273;28;45450;-89
2022/09/28 04:15:37;;;;;;;;;2.00;2.00;;;;;12.92;77.23;99678.13;5058968;28;45511;-89
2022/09/28 04:18:10;;;;;;;;;4.00;2.75;;;;;12.87;77.13;99675.78;5058750;28;45404;-87
2022/09/28 04:20:35;;;;;;;;;4.25;2.00;;;;;12.89;77.72;99679.16;5058440;28;48144;-88
2022/09/28 04:23:00;;;;;;;;;3.50;1.75;;;;;12.85;76.91;99672.41;5076428;28;45360;-87
2022/09/28 04:25:26;;;;;;;;;2.00;2.00;;;;;12.85;77.74;99671.53;5058210;28;45328;-89
2022/09/28 04:30:35;;;;;;;;;1.25;1.00;;;;;12.84;77.70;99677.72;5061019;28;45356;-88
2022/09/28 04:33:00;;;;;;;;;2.00;1.00;;;;;12.86;77.67;99681.91;5076188;27;45412;-88
2022/09/28 04:35:26;;;;;;;;;2.50;2.50;;;;;12.88;77.42;99690.50;5076022;28;59285;-89
2022/09/28 04:37:51;;;;;;;;;2.50;1.75;;;;;12.90;77.42;99699.09;5058377;28;47594;-89
2022/09/28 04:40:16;;;;;;;;;1.00;1.00;;;;;12.92;77.35;99693.78;5040212;27;74532;-89
2022/09/28 04:42:42;;;;;;;;;3.50;2.25;;;;;12.90;77.15;99701.69;5057740;28;57367;-89
2022/09/28 04:45:08;;;;;;;;;2.25;2.25;;;;;12.87;77.56;99709.72;5076382;28;45342;-88
2022/09/28 04:47:33;;;;;;;;;1.25;1.00;;;;;12.85;77.59;99698.53;5076336;28;45550;-87
2022/09/28 04:49:58;;;;;;;;;2.50;2.00;;;;;12.84;77.43;99699.44;5056986;28;63350;-86
2022/09/28 04:52:25;;;;;;;;;4.25;2.00;;;;;12.84;77.83;99701.22;5057967;28;45307;-86
2022/09/28 04:54:50;;;;;;;;;3.25;2.00;;;;;12.84;77.68;99694.22;5075649;27;45352;-86
2022/09/28 04:57:16;;;;;;;;;6.50;2.50;;;;;12.86;77.93;99691.53;5075938;27;49758;-87
2022/09/28 04:59:41;;;;;;;;;3.00;3.00;;;;;12.88;77.50;99694.91;5075420;28;66513;-88
2022/09/28 05:02:06;;;;;;;;;3.75;3.50;;;;;12.86;77.39;99694.13;5075763;28;45284;-87
2022/09/28 05:04:32;;;;;;;;;7.25;2.75;;;;;12.79;77.18;99691.84;5076200;28;45274;-87
2022/09/28 05:06:57;;;;;;;;;4.50;4.00;;;;;12.78;77.08;99687.56;5075654;28;52423;-87
2022/09/28 05:09:22;;;;;;;;;3.00;3.00;;;;;12.76;77.67;99688.59;5075485;28;45348;-87
2022/09/28 05:11:49;;;;;;;;;7.00;2.75;;;;;12.76;77.28;99689.41;5056835;28;70052;-87
2022/09/28 05:14:18;;;;;;;;;3.25;3.25;;;;;12.74;77.33;99683.44;5057608;27;45439;-87
2022/09/28 05:16:46;;;;;;;;;4.50;2.00;;;;;12.71;77.45;99690.59;5076209;28;45358;-87
2022/09/28 05:19:14;;;;;;;;;2.00;2.00;;;;;12.69;77.36;99695.06;5060773;28;46589;-87
2022/09/28 05:21:43;;;;;;;;;6.00;3.50;;;;;12.71;77.95;99695.81;5057550;28;45693;-87
2022/09/28 05:24:09;;;;;;;;;2.00;2.00;;;;;12.73;77.35;99691.34;5057644;28;45305;-87
2022/09/28 05:26:37;;;;;;;;;1.25;1.25;;;;;12.76;77.79;99691.19;5075922;28;45301;-87
2022/09/28 05:29:03;;;;;;;;;3.00;3.00;;;;;12.81;77.33;99691.75;5057049;28;57464;-87
2022/09/28 05:31:28;;;;;;;;;4.00;2.00;;;;;12.84;76.92;99686.38;5057524;28;45470;-87
2022/09/28 05:33:54;;;;;;;;;3.00;2.00;;;;;12.85;77.26;99692.44;5057471;28;45502;-87
2022/09/28 05:36:19;;;;;;;;;4.50;2.00;;;;;12.89;77.27;99691.34;5057465;28;45523;-88
2022/09/28 05:38:45;;;;;;;;;6.00;3.00;;;;;12.88;77.23;99690.50;5055930;28;73594;-87
2022/09/28 05:41:10;;;;;;;;;2.00;2.00;;;;;12.91;76.73;99694.72;5075393;28;45443;-87
2022/09/28 05:43:37;;;;;;;;;7.00;2.00;;;;;12.89;76.55;99696.56;5057597;28;45746;-87
2022/09/28 05:46:02;;;;;;;;;5.50;2.00;;;;;12.88;76.72;99694.91;5075519;28;45539;-86
2022/09/28 05:48:28;;;;;;;;;2.00;2.00;;;;;12.85;76.81;99701.13;5057199;28;45469;-87
2022/09/28 05:50:54;;;;;;;;;5.50;3.75;;;;;12.82;76.86;99701.28;5075359;28;45635;-87
2022/09/28 05:53:19;;;;;;;;;7.25;3.00;;;;;12.76;76.74;99704.25;5073538;28;45284;-87
2022/09/28 05:55:45;;;;;;;;;4.50;3.25;;;;;12.74;77.29;99699.09;5074808;28;63037;-87
2022/09/28 05:58:10;;;;;;;;;7.00;3.00;;;;;12.74;77.30;99709.56;5057122;28;45906;-86
2022/09/28 06:00:35;;;;;;;;;7.50;3.00;;;;;12.75;77.43;99713.84;5076140;28;45347;-87
2022/09/28 06:03:06;;;;;;;;;4.00;3.00;;;;;12.83;77.63;99721.25;5062436;27;45265;-87
2022/09/28 06:05:34;;;;;;;;;6.00;4.00;;;;;12.85;77.81;99714.19;5060736;27;45456;-86
2022/09/28 06:08:01;;;;;;;;;7.50;3.50;;;;;12.90;77.81;99716.53;5060391;28;46091;-86
2022/09/28 06:10:27;;;;;;;;;6.25;3.00;;;;;12.92;77.51;99712.91;5060573;27;45316;-86
2022/09/28 06:12:56;;;;;;;;;4.00;3.25;;;;;12.93;77.11;99709.38;5078498;27;45390;-87
2022/09/28 06:15:26;;;;;;;;;5.25;4.00;;;;;12.95;77.22;99722.38;5060572;28;45426;-87
2022/09/28 06:18:05;;;;;;;;;2.25;2.25;;;;;12.95;76.62;99715.38;5078443;27;45526;-86
2022/09/28 06:20:33;;;;;;;;;5.75;3.50;;;;;12.96;76.85;99717.06;5078385;28;45477;-87
2022/09/28 06:22:59;;;;;;;;;4.50;2.25;;;;;12.95;76.15;99719.75;5078283;27;45308;-87
2022/09/28 06:25:26;;;;;;;;;6.25;2.75;;;;;12.93;76.71;99722.44;5060192;28;45462;-86
2022/09/28 06:28:12;;;;;;;;;4.00;3.00;;;;;12.96;76.38;99724.91;5060275;28;45705;-86
2022/09/28 06:30:38;;;;;;;;;3.00;3.00;;;;;12.99;76.71;99731.72;5078142;27;45571;-87
2022/09/28 06:33:04;;;;;;;;;7.00;4.00;;;;;13.02;76.71;99735.91;5059975;28;45380;-87
2022/09/28 06:35:31;;;;;;;;;3.00;2.75;;;;;13.02;76.32;99735.91;5078401;27;45536;-86
2022/09/28 06:37:59;;;;;;;;;2.25;2.25;;;;;13.04;76.43;99736.66;5076652;27;45450;-87
2022/09/28 06:40:25;;;;;;;;;4.00;2.25;;;;;13.01;76.01;99732.47;5077636;27;45630;-85
2022/09/28 06:42:59;;;;;;;;;4.00;2.50;;;;;12.97;76.10;99739.63;5060074;28;45300;-87
2022/09/28 06:45:26;;;;;;;;;3.50;3.00;;;;;12.94;75.31;99745.00;5076954;27;45370;-87
2022/09/28 06:47:57;;;;;;;;;2.00;2.00;;;;;12.92;75.79;99751.25;5060053;28;46016;-87
2022/09/28 06:50:24;;;;;;;;;8.00;2.50;;;;;12.95;75.83;99746.72;5059823;28;45387;-86
2022/09/28 06:52:51;;;;;;;;;4.75;3.00;;;;;13.03;75.91;99748.06;5078040;28;45295;-86
2022/09/28 06:55:16;;;;;;;;;4.00;3.00;;;;;13.07;75.44;99757.41;5078065;28;45549;-86
2022/09/28 06:57:41;;;;;;;;;4.00;3.50;;;;;13.14;75.77;99758.75;5077756;27;46100;-86
2022/09/28 07:00:07;;;;;;;;;3.25;2.50;;;;;13.17;75.49;99761.22;5077578;28;48833;-86
2022/09/28 07:02:33;;;;;;;;;3.50;2.00;;;;;13.23;75.29;99757.41;5077749;27;45360;-86
2022/09/28 07:04:58;;;;;;;;;8.00;4.00;;;;;13.28;75.30;99763.22;5058549;27;66649;-86
2022/09/28 07:07:23;;;;;;;;;8.00;3.00;;;;;13.29;74.94;99770.13;5059121;28;75530;-92
2022/09/28 07:09:55;;;;;;;;;4.00;3.50;;;;;13.30;75.12;99767.47;5043743;28;50645;-93
2022/09/28 07:12:23;;;;;;;;;3.50;2.00;;;;;13.34;75.15;99765.53;5079252;27;45294;-95
2022/09/28 07:14:48;;;;;;;;;8.00;3.00;;;;;13.38;74.64;99774.88;5061173;28;45444;-92
2022/09/28 07:17:19;;;;;;;;;7.50;3.25;;;;;13.39;74.87;99779.19;5060801;28;46112;-92
2022/09/28 07:19:51;;;;;;;;;2.25;2.00;;;;;13.36;74.66;99777.56;5078310;27;45302;-92
2022/09/28 07:22:17;;;;;;;;;4.00;2.75;;;;;13.39;74.54;99781.81;5061448;28;45404;-94
2022/09/28 07:24:43;;;;;;;;;3.25;2.00;;;;;13.45;74.56;99778.84;5061124;28;45284;-88
2022/09/28 07:27:16;;;;;;;;;3.50;3.00;;;;;13.51;74.16;99783.72;5060118;28;46017;-90
2022/09/28 07:29:41;;;;;;;;;2.25;1.00;;;;;13.57;73.97;99779.91;5061362;28;45661;-91
2022/09/28 07:32:07;;;;;;;;;2.50;2.50;;;;;13.62;73.62;99780.50;5060043;28;45274;-89
2022/09/28 07:34:55;;;;;;;;;1.50;1.50;;;;;13.70;73.18;99780.91;5077063;28;45328;-95
2022/09/28 07:37:33;;;;;;;;;;;;;;;;;;;;;
2022/09/28 07:42:45;;;;;;;;;4.00;2.25;;;;;13.89;73.26;99796.41;5076394;28;45253;-87
2022/09/28 07:45:17;;;;;;;;;6.75;3.00;;;;;13.96;72.51;99794.25;5076340;28;45431;-89
2022/09/28 07:47:44;;;;;;;;;2.75;2.75;;;;;14.02;72.84;99795.66;5076238;28;48286;-89
2022/09/28 07:50:10;;;;;;;;;6.50;2.00;;;;;14.08;72.22;99798.78;5076692;28;45869;-90
2022/09/28 07:52:37;;;;;;;;;2.75;2.75;;;;;14.17;72.15;99801.78;5076911;28;45457;-89
2022/09/28 07:55:04;;;;;;;;;3.00;2.00;;;;;14.23;71.78;99799.66;5076771;28;45495;-90
2022/09/28 07:57:32;;;;;;;;;2.00;2.00;;;;;14.28;71.28;99805.47;5077700;27;45619;-94
2022/09/28 07:59:57;;;;;;;;;8.00;2.00;;;;;14.34;71.49;99817.34;5077255;28;45571;-96
2022/09/28 08:02:23;;;;;;;;;6.00;3.50;;;;;14.41;71.17;99818.69;5078128;28;45376;-94
2022/09/28 08:04:49;;;;;;;;;1.00;1.00;;;;;14.49;70.55;99821.66;5061482;28;45166;-91
2022/09/28 08:07:15;;;;;;;;;1.50;0.50;;;;;14.52;70.00;99824.09;5060688;28;46095;-96
2022/09/28 08:09:42;;;;;;;;;1.75;1.75;;;;;14.57;69.08;99822.97;5060875;28;45483;-95
2022/09/28 08:12:07;;;;;;;;;2.00;1.00;;;;;14.56;68.75;99824.78;5044081;27;45368;-93
2022/09/28 08:14:33;;;;;;;;;2.00;1.00;;;;;14.53;68.90;99823.16;5043273;28;45388;-94
2022/09/28 08:17:02;;;;;;;;;2.25;2.00;;;;;14.50;68.83;99823.38;5060143;28;45493;-93
2022/09/28 08:21:43;;;;;;;;;1.00;1.00;;;;;14.50;69.48;99823.38;5059478;28;45983;-94
2022/09/28 08:22:19;;;;;;;;;2.25;2.00;;;;;14.53;69.50;99822.31;5063533;28;45483;-95
2022/09/28 08:24:45;;;;;;;;;1.00;1.00;;;;;14.54;68.63;99829.22;5060014;28;45253;-93
2022/09/28 08:27:12;;;;;;;;;2.25;1.00;;;;;14.58;68.92;99832.53;5043295;28;48044;-95
2022/09/28 08:29:37;;;;;;;;;2.00;2.00;;;;;14.64;68.55;99834.81;5078439;27;45363;-94
2022/09/28 08:32:07;;;;;;;;;2.75;2.00;;;;;14.70;68.86;99839.66;5042921;28;45480;-95
2022/09/28 08:34:37;;;;;;;;;3.00;1.00;;;;;14.73;67.94;99833.41;5060272;28;45335;-91
2022/09/28 08:37:03;;;;;;;;;3.00;2.00;;;;;14.66;67.46;99827.69;5077424;27;46547;-94
2022/09/28 08:39:28;;;;;;;;;4.50;1.50;;;;;14.63;68.17;99831.34;5077648;28;45454;-93
2022/09/28 08:42:03;;;;;;;;;2.00;1.50;;;;;14.69;68.06;99827.50;5059865;28;45383;-95
2022/09/28 08:44:38;;;;;;;;;2.75;2.00;;;;;14.74;66.42;99830.69;5059975;28;45348;-94
2022/09/28 08:50:13;;;;;;;;;4.50;1.50;;;;;14.89;66.13;99827.16;5062279;28;45285;-91
2022/09/28 08:52:39;;;;;;;;;0.75;0.75;;;;;14.93;66.53;99827.78;5059659;28;45454;-92
2022/09/28 08:55:19;;;;;;;;;3.50;1.75;;;;;14.98;65.63;99830.97;5076227;28;45494;-92
2022/09/28 08:58:09;;;;;;;;;2.00;0.25;;;;;15.10;65.08;99837.25;5059823;28;46406;-93
2022/09/28 09:00:39;;;;;;;;;2.50;1.00;;;;;15.28;63.72;99836.09;5059325;28;45586;-93
2022/09/28 09:03:05;;;;;;;;;2.00;0.50;;;;;15.38;63.61;99838.13;5042149;28;45333;-92
2022/09/28 09:06:06;;;;;;;;;2.00;1.00;;;;;15.46;63.88;99834.06;5059299;28;45520;-92
2022/09/28 09:08:46;;;;;;;;;1.25;1.00;;;;;15.53;63.67;99838.94;5072985;28;47601;-91
2022/09/28 09:11:34;;;;;;;;;1.00;1.00;;;;;15.53;62.46;99839.78;5076956;28;45375;-93
2022/09/28 09:14:21;;;;;;;;;1.00;1.00;;;;;15.56;64.00;99836.09;5042377;28;45309;-92
2022/09/28 09:17:19;;;;;;;;;2.00;1.00;;;;;15.61;63.50;99842.75;5058937;27;45222;-94
2022/09/28 09:19:45;;;;;;;;;0.00;0.00;;;;;15.71;63.46;99827.25;5076926;27;46732;-95
2022/09/28 09:22:28;;;;;;;;;2.00;0.75;;;;;15.87;62.17;99840.25;5077748;27;45473;-94
2022/09/28 09:25:09;;;;;;;;;2.50;0.50;;;;;15.92;62.00;99830.31;5077370;27;45465;-92
2022/09/28 09:27:56;;;;;;;;;0.00;0.00;;;;;15.91;59.95;99836.47;5076764;28;45273;-89
2022/09/28 09:30:23;;;;;;;;;1.00;1.00;;;;;15.83;61.59;99838.78;5076151;27;45270;-91
2022/09/28 09:33:22;;;;;;;;;0.50;0.50;;;;;15.98;60.86;99836.94;5058740;28;45603;-94
2022/09/28 09:35:48;;;;;;;;;2.75;1.00;;;;;16.04;61.03;99837.34;5062075;28;45357;-94
2022/09/28 09:38:39;;;;;;;;;2.00;1.00;;;;;16.02;60.79;99839.25;5062751;27;45477;-94
2022/09/28 09:41:04;;;;;;;;;6.00;0.00;;;;;16.00;61.24;99835.88;5063936;27;45514;-91
2022/09/28 09:43:33;;;;;;;;;1.50;1.00;;;;;16.02;61.61;99831.38;5062170;27;45370;-94
2022/09/28 09:46:13;;;;;;;;;4.00;1.00;;;;;16.00;60.54;99838.50;5080645;28;45324;-95
2022/09/28 09:48:42;;;;;;;;;2.00;1.00;;;;;16.00;60.63;99835.88;5063864;27;45385;-95
2022/09/28 09:51:40;;;;;;;;;1.50;1.50;;;;;15.99;58.30;99835.97;5062323;28;47018;-94
2022/09/28 09:54:21;;;;;;;;;2.25;1.00;;;;;15.97;59.07;99829.97;4997866;28;45321;-95
2022/09/28 09:57:04;;;;;;;;;1.00;1.00;;;;;15.96;59.42;99834.41;4998193;28;45404;-95
2022/09/28 09:59:32;;;;;;;;;1.00;1.00;;;;;16.09;59.07;99831.81;4981378;28;45436;-94
2022/09/28 10:02:00;;;;;;;;;1.50;0.75;;;;;16.25;58.00;99829.84;4997600;28;45444;-94
2022/09/28 10:04:30;;;;;;;;;2.00;0.75;;;;;16.27;57.89;99832.38;4997672;28;45313;-94
2022/09/28 10:07:02;;;;;;;;;0.75;0.00;;;;;16.28;59.24;99836.66;4965432;28;45420;-95
2022/09/28 10:09:44;;;;;;;;;2.50;1.00;;;;;16.37;58.13;99830.81;4998004;28;45445;-95
2022/09/28 10:12:14;;;;;;;;;1.00;1.00;;;;;16.39;57.59;99828.91;4997724;28;47582;-95
2022/09/28 10:14:39;;;;;;;;;2.00;1.00;;;;;16.29;55.20;99830.50;4997328;28;45416;-94
2022/09/28 10:17:05;;;;;;;;;1.75;0.25;;;;;16.24;56.30;99827.31;4981416;28;45455;-94
2022/09/28 10:19:32;;;;;;;;;0.25;0.25;;;;;16.40;56.59;99827.97;4984592;28;45462;-95
2022/09/28 10:22:02;;;;;;;;;1.00;1.00;;;;;16.71;55.82;99820.59;5000004;28;45606;-96
2022/09/28 10:24:31;;;;;;;;;1.00;1.00;;;;;16.88;54.67;99831.78;4997799;28;45893;-95
2022/09/28 10:27:03;;;;;;;;;1.00;1.00;;;;;16.98;55.19;99820.50;4981487;28;45528;-95
2022/09/28 10:29:38;;;;;;;;;2.00;0.00;;;;;17.10;54.97;99829.31;4981328;28;45565;-94
2022/09/28 10:32:17;;;;;;;;;0.00;0.00;;;;;17.17;54.47;99827.94;5030724;28;47348;-95
2022/09/28 10:34:42;;;;;;;;;1.00;1.00;;;;;17.25;54.78;99831.81;5040798;28;45682;-95
2022/09/28 10:37:09;;;;;;;;;0.50;0.50;;;;;17.37;54.69;99829.16;5042091;28;45297;-95
2022/09/28 10:39:52;;;;;;;;;0.50;0.50;;;;;17.52;54.37;99831.63;5041540;28;45332;-95
2022/09/28 10:42:31;;;;;;;;;2.50;1.00;;;;;17.63;54.75;99825.59;5041530;28;47234;-94
2022/09/28 10:45:04;;;;;;;;;0.75;0.00;;;;;17.61;52.60;99829.16;5041267;28;45270;-95
2022/09/28 10:47:31;;;;;;;;;3.00;1.00;;;;;17.68;51.34;99821.69;5062024;28;45453;-95
2022/09/28 10:49:57;;;;;;;;;0.00;0.00;;;;;17.82;52.74;99815.38;5046427;28;45496;-95
2022/09/28 10:52:41;;;;;;;;;3.25;0.00;;;;;17.88;52.50;99824.66;5046231;28;45523;-95
2022/09/28 10:55:27;;;;;;;;;2.00;1.00;;;;;17.85;50.31;99822.25;5042364;28;45233;-95
2022/09/28 10:57:53;;;;;;;;;1.00;1.00;;;;;17.90;50.81;99823.56;5042324;28;45309;-95
2022/09/28 11:00:29;;;;;;;;;3.00;1.00;;;;;17.98;51.37;99821.22;5043357;28;44980;-95
2022/09/28 11:02:55;;;;;;;;;3.00;1.25;;;;;18.18;52.30;99819.75;5060210;28;46989;-95
2022/09/28 11:05:26;;;;;;;;;1.00;1.00;;;;;18.41;50.85;99813.69;5063972;28;45324;-95
2022/09/28 11:07:54;;;;;;;;;1.00;1.00;;;;;18.59;49.96;99820.19;5045626;28;45321;-95
2022/09/28 11:10:26;;;;;;;;;0.75;0.25;;;;;18.64;49.65;99817.19;5062821;28;45371;-95
2022/09/28 11:12:52;;;;;;;;;0.50;0.50;;;;;18.65;50.20;99822.34;5059964;28;47991;-96
2022/09/28 11:15:27;;;;;;;;;2.50;1.00;;;;;18.75;47.07;99822.47;5041926;28;45606;-94
2022/09/28 11:17:54;;;;;;;;;2.00;1.00;;;;;18.89;48.92;99830.19;5041967;28;45297;-95
2022/09/28 11:20:25;;;;;;;;;0.00;0.00;;;;;19.24;48.75;99828.34;5059075;28;45403;-95
2022/09/28 11:22:59;;;;;;;;;2.00;1.00;;;;;20.63;49.32;99820.47;5060275;28;46420;-95
2022/09/28 11:25:26;;;;;;;;;3.00;0.00;;;;;21.24;45.16;99825.72;5041111;28;45404;-96
2022/09/28 11:27:52;;;;;;;;;1.00;1.00;;;;;22.36;42.95;99827.22;5040800;28;45297;-95
2022/09/28 11:30:28;;;;;;;;;1.00;1.00;;;;;23.57;41.79;99828.13;5040431;28;45282;-95
2022/09/28 11:32:59;;;;;;;;;1.00;1.00;;;;;23.69;40.91;99828.72;5048840;28;48250;-95
2022/09/28 11:35:49;;;;;;;;;1.00;1.00;;;;;22.78;41.56;99825.00;5060586;27;45403;-95
2022/09/28 11:38:38;;;;;;;;;1.00;1.00;;;;;21.81;41.49;99822.50;5077869;28;45398;-95
2022/09/28 11:41:48;;;;;;;;;0.75;0.75;;;;;20.84;43.06;99821.28;5044442;28;45494;-95
2022/09/28 11:44:45;;;;;;;;;0.75;0.75;;;;;20.01;43.84;99825.63;5069533;28;47176;-94
2022/09/28 11:47:28;;;;;;;;;0.50;0.50;;;;;19.64;42.63;99831.25;5044237;28;45638;-92
2022/09/28 11:50:26;;;;;;;;;1.00;1.00;;;;;19.29;44.46;99837.56;5063868;28;45451;-89
2022/09/28 11:52:56;;;;;;;;;1.00;1.00;;;;;18.90;44.49;99826.56;4980532;28;45588;-89
2022/09/28 11:55:42;;;;;;;;;1.25;0.25;;;;;18.52;44.47;99819.81;4978438;28;45469;-90
2022/09/28 11:58:12;;;;;;;;;1.00;0.25;;;;;18.17;44.99;99819.84;4994205;28;45380;-90
2022/09/28 12:00:44;;;;;;;;;1.75;0.00;;;;;17.94;45.75;99821.56;4979318;28;45434;-90